Time;durP1;ratioP1;P1;durP2;ratioP2;P2;SDS_P1;SDS_P2;PMS_P1;PMS_P2;Temp;Humidity;BMP_temperature;BMP_pressure;BME280_temperature;BME280_humidity;BME280_pressure;Samples;Min_cycle;Max_cycle;Signal;HPM_P1;HPM_P2
2022/03/22 00:01:48;;;;;;;;;;;18.60;57.00;;;;;;5032337;28;1271;-70
2022/03/22 00:04:14;;;;;;;;;;;18.60;57.00;;;;;;5035532;28;1358;-70
2022/03/22 00:06:40;;;;;;;;;;;18.60;57.00;;;;;;5034348;28;1366;-70
2022/03/22 00:09:06;;;;;;;;;;;18.60;57.00;;;;;;5034849;28;1143;-70
2022/03/22 00:11:33;;;;;;;;;;;18.60;57.10;;;;;;5035824;28;1275;-70
2022/03/22 00:13:58;;;;;;;;;;;18.60;57.00;;;;;;5034841;28;1902;-71
2022/03/22 00:16:24;;;;;;;;;;;18.60;57.10;;;;;;5039860;28;1478;-70
2022/03/22 00:18:49;;;;;;;;;;;18.60;57.10;;;;;;5047568;28;1547;-71
2022/03/22 00:21:15;;;;;;;;;;;18.60;57.10;;;;;;5027263;28;1329;-70
2022/03/22 00:23:40;;;;;;;;;;;18.60;57.10;;;;;;5035608;28;1369;-70
2022/03/22 00:26:06;;;;;;;;;;;18.60;57.10;;;;;;5035549;28;1299;-70
2022/03/22 00:28:31;;;;;;;;;;;18.50;57.10;;;;;;5035358;28;1358;-70
2022/03/22 00:30:57;;;;;;;;;;;18.60;57.10;;;;;;5034287;28;1059;-70
2022/03/22 00:33:22;;;;;;;;;;;18.60;57.10;;;;;;5035490;28;1402;-70
2022/03/22 00:35:48;;;;;;;;;;;18.50;57.10;;;;;;5034670;28;1894;-70
2022/03/22 00:38:16;;;;;;;;;;;18.50;57.10;;;;;;5034449;28;1330;-70
2022/03/22 00:40:42;;;;;;;;;;;18.50;57.10;;;;;;5035395;28;1353;-70
2022/03/22 00:43:07;;;;;;;;;;;18.60;57.20;;;;;;5035088;28;1183;-70
2022/03/22 00:45:33;;;;;;;;;;;18.50;57.10;;;;;;5033781;28;1374;-70
2022/03/22 00:47:59;;;;;;;;;;;18.50;57.20;;;;;;5035150;28;1325;-70
2022/03/22 00:50:28;;;;;;;;;;;18.50;57.20;;;;;;5033914;28;1327;-70
2022/03/22 00:52:54;;;;;;;;;;;18.50;57.20;;;;;;5033897;28;1596;-70
2022/03/22 00:55:23;;;;;;;;;;;18.50;57.20;;;;;;5034081;28;1914;-70
2022/03/22 00:57:48;;;;;;;;;;;18.50;57.20;;;;;;5033773;28;1145;-70
2022/03/22 01:00:14;;;;;;;;;;;18.50;57.20;;;;;;5035057;28;1109;-70
2022/03/22 01:02:43;;;;;;;;;;;18.50;57.20;;;;;;5034594;28;1334;-70
2022/03/22 01:05:13;;;;;;;;;;;18.50;57.20;;;;;;5034026;28;1378;-70
2022/03/22 01:07:41;;;;;;;;;;;18.50;57.20;;;;;;5034594;28;1290;-70
2022/03/22 01:10:07;;;;;;;;;;;18.50;57.20;;;;;;5034760;28;1420;-70
2022/03/22 01:12:34;;;;;;;;;;;18.50;57.80;;;;;;5033496;28;1409;-70
2022/03/22 01:14:59;;;;;;;;;;;18.50;57.30;;;;;;5025166;28;1903;-70
2022/03/22 01:17:25;;;;;;;;;;;18.50;57.30;;;;;;5034392;28;1388;-70
2022/03/22 01:19:50;;;;;;;;;;;18.50;57.30;;;;;;5033358;28;1272;-70
2022/03/22 01:22:16;;;;;;;;;;;18.50;57.30;;;;;;5034599;28;1254;-70
2022/03/22 01:24:42;;;;;;;;;;;18.50;57.30;;;;;;5034360;28;1349;-70
2022/03/22 01:27:08;;;;;;;;;;;18.50;57.30;;;;;;5034240;28;1168;-70
2022/03/22 01:29:33;;;;;;;;;;;18.50;57.30;;;;;;5033063;28;1276;-70
2022/03/22 01:31:59;;;;;;;;;;;18.50;57.30;;;;;;5034572;28;1139;-70
2022/03/22 01:34:25;;;;;;;;;;;18.50;57.30;;;;;;5032967;28;1894;-70
2022/03/22 01:36:50;;;;;;;;;;;18.50;57.30;;;;;;5033988;28;1116;-70
2022/03/22 01:39:16;;;;;;;;;;;18.50;57.30;;;;;;5033066;28;1304;-70
2022/03/22 01:41:41;;;;;;;;;;;18.50;57.30;;;;;;5032797;28;1128;-70
2022/03/22 01:44:06;;;;;;;;;;;18.50;57.30;;;;;;5032829;28;1410;-70
2022/03/22 01:46:32;;;;;;;;;;;18.50;57.40;;;;;;5033640;28;1063;-70
2022/03/22 01:48:57;;;;;;;;;;;18.50;57.40;;;;;;5032689;28;1358;-70
2022/03/22 01:51:23;;;;;;;;;;;18.50;57.40;;;;;;5033095;28;1635;-70
2022/03/22 01:53:49;;;;;;;;;;;18.40;57.30;;;;;;5032646;28;1536;-71
2022/03/22 01:56:14;;;;;;;;;;;18.50;57.40;;;;;;5032379;28;1906;-70
2022/03/22 01:58:39;;;;;;;;;;;18.40;57.30;;;;;;5033782;28;1318;-70
2022/03/22 02:06:33;;;;;;;;;;;18.50;57.40;;;;;;5033672;28;1249;-70
2022/03/22 02:08:59;;;;;;;;;;;18.40;57.40;;;;;;5032157;28;1704;-70
2022/03/22 02:11:25;;;;;;;;;;;18.40;57.40;;;;;;5031427;28;1432;-70
2022/03/22 02:13:50;;;;;;;;;;;18.40;57.40;;;;;;5032187;28;1361;-70
2022/03/22 02:16:15;;;;;;;;;;;18.40;57.40;;;;;;5024821;28;1898;-70
2022/03/22 02:18:42;;;;;;;;;;;18.40;57.40;;;;;;5031354;28;1290;-70
2022/03/22 02:21:09;;;;;;;;;;;18.40;57.40;;;;;;5032548;28;1302;-70
2022/03/22 02:24:04;;;;;;;;;;;18.40;57.40;;;;;;5032347;28;1339;-70
2022/03/22 02:26:29;;;;;;;;;;;18.40;57.50;;;;;;5023993;28;1372;-70
2022/03/22 02:28:55;;;;;;;;;;;18.40;57.40;;;;;;5033608;28;1262;-70
2022/03/22 02:31:21;;;;;;;;;;;18.40;57.40;;;;;;5033176;28;1335;-70
2022/03/22 02:33:46;;;;;;;;;;;18.40;57.50;;;;;;5033219;28;1274;-70
2022/03/22 02:36:12;;;;;;;;;;;18.40;57.50;;;;;;5032766;28;1945;-70
2022/03/22 02:38:37;;;;;;;;;;;18.40;57.50;;;;;;5032808;28;1098;-70
2022/03/22 02:41:03;;;;;;;;;;;18.40;57.50;;;;;;5031742;28;1343;-70
2022/03/22 02:43:29;;;;;;;;;;;18.40;57.50;;;;;;5032974;28;1107;-70
2022/03/22 02:45:54;;;;;;;;;;;18.40;57.50;;;;;;5032815;28;1337;-70
2022/03/22 02:48:19;;;;;;;;;;;18.40;57.50;;;;;;5031767;28;1404;-70
2022/03/22 02:50:45;;;;;;;;;;;18.40;57.50;;;;;;5032478;28;1308;-70
2022/03/22 02:53:10;;;;;;;;;;;18.40;57.50;;;;;;5028880;28;1057;-70
2022/03/22 02:55:36;;;;;;;;;;;18.50;57.60;;;;;;5026116;28;1910;-69
2022/03/22 02:58:02;;;;;;;;;;;18.50;57.60;;;;;;5031702;28;1216;-69
2022/03/22 03:00:27;;;;;;;;;;;18.50;57.50;;;;;;5032588;28;1129;-70
2022/03/22 03:02:53;;;;;;;;;;;18.60;57.60;;;;;;5032650;28;1720;-70
2022/03/22 03:05:19;;;;;;;;;;;18.60;57.60;;;;;;5032872;28;1440;-70
2022/03/22 03:07:44;;;;;;;;;;;18.60;57.70;;;;;;5032688;28;1424;-70
2022/03/22 03:10:10;;;;;;;;;;;18.60;57.70;;;;;;5031697;28;1695;-70
2022/03/22 03:12:35;;;;;;;;;;;18.60;57.70;;;;;;5032848;28;1584;-70
2022/03/22 03:15:02;;;;;;;;;;;18.60;57.90;;;;;;5023184;28;1918;-70
2022/03/22 03:17:27;;;;;;;;;;;18.60;58.10;;;;;;5032641;28;1413;-70
2022/03/22 03:19:53;;;;;;;;;;;18.60;57.90;;;;;;5031625;28;1665;-70
2022/03/22 03:22:18;;;;;;;;;;;18.60;58.00;;;;;;5032765;28;1591;-70
2022/03/22 03:24:44;;;;;;;;;;;18.60;58.10;;;;;;5032729;28;1410;-70
2022/03/22 03:27:09;;;;;;;;;;;18.60;58.20;;;;;;5032486;28;1420;-71
2022/03/22 03:29:34;;;;;;;;;;;18.60;58.30;;;;;;5032676;28;1462;-71
2022/03/22 03:32:00;;;;;;;;;;;18.70;58.20;;;;;;5032746;28;1404;-71
2022/03/22 03:34:25;;;;;;;;;;;18.70;58.10;;;;;;5032678;28;1984;-70
2022/03/22 03:36:51;;;;;;;;;;;18.70;58.10;;;;;;5032301;28;1460;-70
2022/03/22 03:39:16;;;;;;;;;;;18.70;58.00;;;;;;5036475;28;919;-71
2022/03/22 03:42:04;;;;;;;;;;;18.70;58.00;;;;;;5018190;28;1185;-70
2022/03/22 03:47:12;;;;;;;;;;;18.70;58.20;;;;;;5034804;28;1056;-70
2022/03/22 03:49:37;;;;;;;;;;;18.70;58.20;;;;;;5028735;28;1131;-70
2022/03/22 03:52:23;;;;;;;;;;;18.70;58.30;;;;;;5028909;28;1161;-71
2022/03/22 03:54:49;;;;;;;;;;;18.70;58.20;;;;;;5024292;28;1913;-71
2022/03/22 03:57:14;;;;;;;;;;;18.70;58.30;;;;;;5032748;28;1162;-70
2022/03/22 03:59:40;;;;;;;;;;;18.70;58.30;;;;;;5023956;28;1079;-71
2022/03/22 04:02:06;;;;;;;;;;;18.70;58.30;;;;;;5034505;28;1062;-70
2022/03/22 04:04:31;;;;;;;;;;;18.80;58.50;;;;;;5025610;28;1367;-70
2022/03/22 04:06:57;;;;;;;;;;;18.80;58.70;;;;;;5010514;28;1256;-70
2022/03/22 04:09:22;;;;;;;;;;;18.80;58.60;;;;;;5024160;28;811;-70
2022/03/22 04:11:48;;;;;;;;;;;18.70;58.70;;;;;;5029959;28;1131;-70
2022/03/22 04:14:13;;;;;;;;;;;18.80;58.80;;;;;;5032614;28;1906;-70
2022/03/22 04:16:39;;;;;;;;;;;18.80;58.90;;;;;;5002380;28;1284;-70
2022/03/22 04:19:07;;;;;;;;;;;18.80;58.70;;;;;;5014196;28;1397;-69
2022/03/22 04:21:34;;;;;;;;;;;18.80;58.90;;;;;;5015993;28;1818;-69
2022/03/22 04:24:01;;;;;;;;;;;18.80;58.80;;;;;;5033808;28;1674;-70
2022/03/22 04:26:26;;;;;;;;;;;18.80;58.80;;;;;;5020395;28;1212;-70
2022/03/22 04:34:20;;;;;;;;;;;18.80;58.90;;;;;;5032042;28;1983;-70
2022/03/22 04:36:53;;;;;;;;;;;18.80;59.00;;;;;;5025240;28;1036;-70
2022/03/22 04:39:18;;;;;;;;;;;18.80;59.00;;;;;;5019502;28;1381;-70
2022/03/22 04:41:43;;;;;;;;;;;18.80;59.10;;;;;;5021296;28;1254;-71
2022/03/22 04:44:09;;;;;;;;;;;18.80;59.10;;;;;;5033675;28;1343;-71
2022/03/22 04:46:34;;;;;;;;;;;18.80;59.10;;;;;;5032880;28;1076;-70
2022/03/22 04:49:00;;;;;;;;;;;18.80;59.30;;;;;;5019065;28;1339;-69
2022/03/22 04:56:54;;;;;;;;;;;18.80;59.40;;;;;;5026523;28;1068;-71
2022/03/22 04:59:24;;;;;;;;;;;18.80;59.40;;;;;;5034792;28;1131;-71
2022/03/22 05:01:50;;;;;;;;;;;18.80;59.30;;;;;;5034501;28;1126;-70
2022/03/22 05:04:15;;;;;;;;;;;18.80;59.20;;;;;;5019321;28;1274;-71
2022/03/22 05:06:41;;;;;;;;;;;18.80;59.50;;;;;;5034163;28;1314;-70
2022/03/22 05:09:06;;;;;;;;;;;18.80;59.30;;;;;;5033246;28;1119;-71
2022/03/22 05:11:32;;;;;;;;;;;18.80;59.60;;;;;;5019294;28;1339;-71
2022/03/22 05:13:57;;;;;;;;;;;18.80;59.60;;;;;;5012110;28;1481;-70
2022/03/22 05:16:24;;;;;;;;;;;18.70;59.40;;;;;;5024936;28;1910;-70
2022/03/22 05:18:50;;;;;;;;;;;18.80;59.40;;;;;;5033248;28;1123;-70
2022/03/22 05:21:19;;;;;;;;;;;18.80;59.50;;;;;;5034339;28;1087;-70
2022/03/22 05:23:47;;;;;;;;;;;18.80;59.70;;;;;;5019671;28;1411;-71
2022/03/22 05:26:12;;;;;;;;;;;18.70;59.60;;;;;;5033581;28;1272;-70
2022/03/22 05:28:38;;;;;;;;;;;18.70;59.50;;;;;;5021217;28;1067;-70
2022/03/22 05:31:04;;;;;;;;;;;18.80;59.60;;;;;;5025675;28;1025;-71
2022/03/22 05:33:29;;;;;;;;;;;18.80;59.60;;;;;;5034042;28;1123;-70
2022/03/22 05:35:56;;;;;;;;;;;18.80;59.60;;;;;;5033736;28;1910;-71
2022/03/22 05:38:22;;;;;;;;;;;18.80;59.60;;;;;;5019344;28;1036;-70
2022/03/22 05:40:47;;;;;;;;;;;18.80;59.50;;;;;;5015843;28;1445;-71
2022/03/22 05:43:13;;;;;;;;;;;18.70;59.60;;;;;;5033699;28;1346;-71
2022/03/22 05:45:39;;;;;;;;;;;18.80;59.60;;;;;;5020250;28;1396;-70
2022/03/22 05:48:07;;;;;;;;;;;18.80;59.60;;;;;;5019327;28;1285;-70
2022/03/22 05:50:33;;;;;;;;;;;18.80;59.80;;;;;;5034039;28;1123;-70
2022/03/22 05:52:58;;;;;;;;;;;18.70;59.80;;;;;;5032531;28;1330;-70
2022/03/22 05:55:24;;;;;;;;;;;18.80;59.90;;;;;;5026985;28;1923;-69
2022/03/22 05:57:49;;;;;;;;;;;18.80;59.70;;;;;;5028911;28;1829;-70
2022/03/22 06:00:15;;;;;;;;;;;18.80;59.60;;;;;;5030068;28;2007;-67
2022/03/22 06:02:40;;;;;;;;;;;18.80;59.60;;;;;;5030498;28;2496;-70
2022/03/22 06:05:08;;;;;;;;;;;18.90;59.60;;;;;;5032958;28;1276;-70
2022/03/22 06:07:34;;;;;;;;;;;18.90;59.60;;;;;;5030908;28;1890;-70
2022/03/22 06:09:59;;;;;;;;;;;18.90;59.60;;;;;;5031095;28;1079;-70
2022/03/22 06:12:26;;;;;;;;;;;18.90;59.50;;;;;;5031753;28;1258;-72
2022/03/22 06:15:14;;;;;;;;;;;18.90;59.50;;;;;;5033413;28;1898;-73
2022/03/22 06:17:37;;;;;;;;;;;19.00;59.60;;;;;;5033074;28;1469;-71
2022/03/22 06:20:03;;;;;;;;;;;19.00;59.50;;;;;;5033437;28;1364;-72
2022/03/22 06:22:28;;;;;;;;;;;19.10;59.50;;;;;;5023164;28;1110;-72
2022/03/22 06:24:54;;;;;;;;;;;19.10;59.60;;;;;;5013575;28;1310;-71
2022/03/22 06:27:20;;;;;;;;;;;19.10;59.60;;;;;;5013489;28;1311;-70
2022/03/22 06:29:46;;;;;;;;;;;19.10;59.60;;;;;;5013363;28;1290;-72
2022/03/22 06:32:11;;;;;;;;;;;19.10;59.50;;;;;;5029056;28;1084;-72
2022/03/22 06:34:37;;;;;;;;;;;19.10;59.70;;;;;;5031280;28;1969;-72
2022/03/22 06:37:03;;;;;;;;;;;19.10;59.50;;;;;;5023222;28;1220;-72
2022/03/22 06:39:29;;;;;;;;;;;19.10;59.50;;;;;;5012520;28;1300;-70
2022/03/22 06:41:54;;;;;;;;;;;19.20;59.50;;;;;;5022262;28;1327;-70
2022/03/22 06:44:20;;;;;;;;;;;19.10;59.40;;;;;;5033272;28;1369;-71
2022/03/22 06:46:45;;;;;;;;;;;19.20;59.60;;;;;;5031815;28;1270;-71
2022/03/22 06:49:10;;;;;;;;;;;19.20;59.40;;;;;;5032120;28;1265;-70
2022/03/22 06:51:36;;;;;;;;;;;19.20;59.30;;;;;;5033228;28;1332;-71
2022/03/22 06:54:01;;;;;;;;;;;19.30;59.30;;;;;;5032945;28;1299;-72
2022/03/22 06:56:27;;;;;;;;;;;19.20;59.40;;;;;;5031813;28;1958;-70
2022/03/22 06:58:52;;;;;;;;;;;19.30;59.30;;;;;;5032950;28;1344;-71
2022/03/22 07:01:18;;;;;;;;;;;19.30;59.40;;;;;;5032818;28;1337;-71
2022/03/22 07:03:43;;;;;;;;;;;19.30;59.30;;;;;;5032739;28;1358;-71
2022/03/22 07:06:08;;;;;;;;;;;19.30;59.50;;;;;;5032733;28;1270;-71
2022/03/22 07:08:35;;;;;;;;;;;19.30;59.40;;;;;;5032785;28;1379;-71
2022/03/22 07:13:44;;;;;;;;;;;19.30;59.50;;;;;;5031985;28;1247;-71
2022/03/22 07:16:09;;;;;;;;;;;19.30;59.50;;;;;;5024552;28;1902;-70
2022/03/22 07:18:35;;;;;;;;;;;19.30;59.30;;;;;;5032770;28;1331;-71
2022/03/22 07:21:04;;;;;;;;;;;19.40;59.30;;;;;;5032777;28;1247;-71
2022/03/22 07:23:30;;;;;;;;;;;19.30;59.20;;;;;;5031507;28;1319;-71
2022/03/22 07:25:55;;;;;;;;;;;19.30;59.30;;;;;;5032602;28;1298;-72
2022/03/22 07:28:20;;;;;;;;;;;19.40;59.30;;;;;;5032636;28;1254;-70
2022/03/22 07:30:46;;;;;;;;;;;19.30;59.20;;;;;;5032871;28;1301;-71
2022/03/22 07:33:11;;;;;;;;;;;19.30;59.20;;;;;;5032734;28;1321;-71
2022/03/22 07:35:37;;;;;;;;;;;19.30;59.30;;;;;;5031077;28;1918;-71
2022/03/22 07:38:02;;;;;;;;;;;19.30;59.20;;;;;;5032617;28;1314;-71
2022/03/22 07:40:28;;;;;;;;;;;19.30;59.30;;;;;;5032437;28;1139;-71
2022/03/22 07:42:53;;;;;;;;;;;19.30;59.40;;;;;;5030226;28;1311;-71
2022/03/22 07:45:19;;;;;;;;;;;19.30;59.30;;;;;;5032451;28;1294;-71
2022/03/22 07:47:45;;;;;;;;;;;19.30;59.40;;;;;;5032376;28;1515;-71
2022/03/22 07:53:01;;;;;;;;;;;19.30;59.50;;;;;;5032946;28;1363;-70
2022/03/22 07:55:28;;;;;;;;;;;19.30;59.60;;;;;;5031085;28;1973;-70
2022/03/22 07:57:54;;;;;;;;;;;19.30;59.50;;;;;;5031335;28;1267;-71
2022/03/22 08:00:20;;;;;;;;;;;19.30;59.60;;;;;;5032368;28;1279;-70
2022/03/22 08:02:54;;;;;;;;;;;19.30;59.70;;;;;;5032397;28;1388;-71
2022/03/22 08:05:20;;;;;;;;;;;19.30;59.80;;;;;;5031065;28;1370;-70
2022/03/22 08:07:45;;;;;;;;;;;19.30;59.70;;;;;;5031980;28;1334;-70
2022/03/22 08:10:11;;;;;;;;;;;19.30;59.60;;;;;;5030969;28;1277;-70
2022/03/22 08:12:36;;;;;;;;;;;19.30;59.70;;;;;;5029825;28;2002;-70
2022/03/22 08:15:02;;;;;;;;;;;19.30;59.60;;;;;;5028308;28;1972;-69
2022/03/22 08:17:28;;;;;;;;;;;19.30;59.60;;;;;;5031174;28;1503;-71
2022/03/22 08:19:53;;;;;;;;;;;19.30;59.70;;;;;;5026909;28;1937;-67
2022/03/22 08:22:19;;;;;;;;;;;19.30;59.90;;;;;;5024473;28;1358;-71
2022/03/22 08:24:45;;;;;;;;;;;19.30;60.00;;;;;;5030249;28;2240;-70
2022/03/22 08:27:10;;;;;;;;;;;19.30;60.00;;;;;;5033644;28;1652;-69
2022/03/22 08:29:35;;;;;;;;;;;19.30;59.90;;;;;;5029896;28;2282;-72
2022/03/22 08:32:01;;;;;;;;;;;19.40;60.00;;;;;;5035076;28;1138;-72
2022/03/22 08:34:26;;;;;;;;;;;19.40;59.80;;;;;;5031858;28;1965;-69
2022/03/22 08:36:52;;;;;;;;;;;19.40;59.80;;;;;;5031985;28;1338;-69
2022/03/22 08:39:18;;;;;;;;;;;19.50;59.90;;;;;;5035314;28;1435;-69
2022/03/22 08:41:43;;;;;;;;;;;19.50;60.00;;;;;;5034052;28;1002;-67
2022/03/22 08:44:09;;;;;;;;;;;19.50;59.80;;;;;;5028048;28;1287;-66
2022/03/22 08:46:35;;;;;;;;;;;19.50;59.90;;;;;;5029394;28;2019;-67
2022/03/22 08:49:00;;;;;;;;;;;19.50;59.80;;;;;;5034824;28;1086;-68
2022/03/22 08:51:26;;;;;;;;;;;19.60;59.80;;;;;;5027830;28;1134;-68
2022/03/22 08:53:51;;;;;;;;;;;19.50;59.70;;;;;;5019690;28;1337;-68
2022/03/22 08:56:18;;;;;;;;;;;19.50;59.70;;;;;;5033501;28;1894;-68
2022/03/22 08:58:44;;;;;;;;;;;19.60;59.60;;;;;;5035037;28;1250;-69
2022/03/22 09:01:09;;;;;;;;;;;19.60;59.60;;;;;;5027804;28;1301;-69
2022/03/22 09:03:35;;;;;;;;;;;19.60;59.50;;;;;;5029044;28;1119;-68
2022/03/22 09:06:11;;;;;;;;;;;19.60;59.50;;;;;;5033304;28;1302;-68
2022/03/22 09:08:38;;;;;;;;;;;19.60;59.50;;;;;;5034933;28;1348;-67
2022/03/22 09:11:04;;;;;;;;;;;19.60;59.40;;;;;;5035292;28;1278;-67
2022/03/22 09:13:29;;;;;;;;;;;19.60;59.60;;;;;;5034166;28;1961;-67
2022/03/22 09:15:55;;;;;;;;;;;19.60;59.60;;;;;;5032475;28;2018;-66
2022/03/22 09:18:24;;;;;;;;;;;19.60;59.60;;;;;;5030265;28;1877;-66
2022/03/22 09:20:50;;;;;;;;;;;19.60;59.50;;;;;;5027405;28;2167;-67
2022/03/22 09:23:15;;;;;;;;;;;19.60;59.70;;;;;;5022997;28;1167;-67
2022/03/22 09:25:41;;;;;;;;;;;19.60;59.60;;;;;;5014502;28;1341;-67
2022/03/22 09:28:07;;;;;;;;;;;19.60;59.60;;;;;;5014898;28;1184;-67
2022/03/22 09:30:34;;;;;;;;;;;19.60;59.60;;;;;;5015481;28;1318;-67
2022/03/22 09:33:01;;;;;;;;;;;19.60;59.70;;;;;;5033220;28;1383;-67
2022/03/22 09:35:27;;;;;;;;;;;19.60;59.80;;;;;;5032745;28;1883;-67
2022/03/22 09:37:53;;;;;;;;;;;19.60;59.90;;;;;;5033223;28;1064;-67
2022/03/22 09:40:18;;;;;;;;;;;19.60;60.40;;;;;;5023181;28;1338;-67
2022/03/22 09:42:45;;;;;;;;;;;19.60;59.90;;;;;;5028809;28;1271;-67
2022/03/22 09:45:17;;;;;;;;;;;19.60;59.80;;;;;;5033088;28;1270;-66
2022/03/22 09:47:44;;;;;;;;;;;19.60;59.80;;;;;;5033939;28;1654;-67
2022/03/22 09:50:09;;;;;;;;;;;19.60;59.80;;;;;;5033005;28;1080;-67
2022/03/22 09:52:35;;;;;;;;;;;19.60;60.00;;;;;;5032895;28;1068;-67
2022/03/22 09:55:00;;;;;;;;;;;19.60;59.80;;;;;;5033057;28;1902;-67
2022/03/22 09:57:27;;;;;;;;;;;19.60;59.80;;;;;;5016117;28;1271;-67
2022/03/22 09:59:53;;;;;;;;;;;19.60;59.90;;;;;;5022981;28;1178;-67
2022/03/22 10:02:26;;;;;;;;;;;19.60;60.20;;;;;;5034284;28;1338;-66
2022/03/22 10:04:51;;;;;;;;;;;19.60;60.20;;;;;;5032747;28;1327;-67
2022/03/22 10:07:17;;;;;;;;;;;19.50;60.10;;;;;;5032407;28;1341;-67
2022/03/22 10:09:47;;;;;;;;;;;19.50;59.90;;;;;;5032671;28;1296;-67
2022/03/22 10:12:12;;;;;;;;;;;19.50;60.20;;;;;;5032557;28;1387;-67
2022/03/22 10:14:38;;;;;;;;;;;19.50;60.10;;;;;;5032292;28;1909;-67
2022/03/22 10:17:08;;;;;;;;;;;19.50;60.10;;;;;;5032228;28;1308;-67
2022/03/22 10:19:33;;;;;;;;;;;19.50;60.30;;;;;;5032351;28;1296;-67
2022/03/22 10:22:04;;;;;;;;;;;19.50;60.20;;;;;;5012556;28;1408;-67
2022/03/22 10:24:29;;;;;;;;;;;19.50;60.30;;;;;;5024293;28;1444;-67
2022/03/22 10:26:55;;;;;;;;;;;19.50;60.40;;;;;;5033227;28;1077;-67
2022/03/22 10:29:20;;;;;;;;;;;19.50;60.40;;;;;;5031994;28;1151;-67
2022/03/22 10:31:46;;;;;;;;;;;19.50;60.40;;;;;;5027441;28;1372;-67
2022/03/22 10:34:12;;;;;;;;;;;19.40;60.40;;;;;;5031849;28;1287;-67
2022/03/22 10:36:38;;;;;;;;;;;19.40;60.40;;;;;;5033107;28;1360;-67
2022/03/22 10:39:04;;;;;;;;;;;19.40;60.40;;;;;;5033329;28;1251;-67
2022/03/22 10:41:30;;;;;;;;;;;19.50;60.50;;;;;;5033041;28;1285;-67
2022/03/22 10:44:02;;;;;;;;;;;19.40;60.60;;;;;;5031607;28;1278;-67
2022/03/22 10:46:28;;;;;;;;;;;19.40;60.60;;;;;;5032384;28;1238;-67
2022/03/22 10:49:00;;;;;;;;;;;19.50;60.80;;;;;;5032612;28;1363;-67
2022/03/22 10:51:30;;;;;;;;;;;19.40;60.60;;;;;;5031885;28;1476;-67
2022/03/22 10:53:56;;;;;;;;;;;19.40;60.70;;;;;;5019366;28;1272;-67
2022/03/22 10:56:22;;;;;;;;;;;19.40;60.70;;;;;;5012898;28;1943;-66
2022/03/22 10:58:47;;;;;;;;;;;19.40;60.80;;;;;;5011954;28;1314;-67
2022/03/22 11:01:15;;;;;;;;;;;19.40;60.90;;;;;;5012103;28;1303;-67
2022/03/22 11:03:40;;;;;;;;;;;19.40;60.90;;;;;;5012373;28;1327;-67
2022/03/22 11:06:06;;;;;;;;;;;19.40;61.00;;;;;;5011801;28;1247;-67
2022/03/22 11:08:31;;;;;;;;;;;19.40;60.90;;;;;;5025602;28;1203;-67
2022/03/22 11:10:57;;;;;;;;;;;19.40;61.00;;;;;;5031374;28;1343;-67
2022/03/22 11:13:23;;;;;;;;;;;19.40;61.10;;;;;;5032774;28;1357;-67
2022/03/22 11:15:48;;;;;;;;;;;19.40;61.00;;;;;;5023416;28;1965;-67
2022/03/22 11:18:14;;;;;;;;;;;19.40;61.10;;;;;;5031668;28;1211;-67
2022/03/22 11:20:49;;;;;;;;;;;19.40;61.00;;;;;;5031473;28;1414;-67
2022/03/22 11:23:17;;;;;;;;;;;19.30;61.00;;;;;;5018885;28;1325;-67
2022/03/22 11:25:43;;;;;;;;;;;19.30;61.10;;;;;;5011323;28;1305;-67
2022/03/22 11:28:09;;;;;;;;;;;19.30;61.20;;;;;;5013049;28;1392;-67
2022/03/22 11:30:35;;;;;;;;;;;19.30;61.20;;;;;;5014149;28;1382;-67
2022/03/22 11:35:45;;;;;;;;;;;19.30;61.30;;;;;;5024020;28;1910;-67
2022/03/22 11:38:13;;;;;;;;;;;19.30;61.30;;;;;;5032568;28;1333;-67
2022/03/22 11:43:30;;;;;;;;;;;19.30;61.30;;;;;;5026397;28;2177;-67
2022/03/22 11:45:55;;;;;;;;;;;19.30;61.30;;;;;;5030765;28;1292;-67
2022/03/22 11:48:33;;;;;;;;;;;19.30;61.50;;;;;;5026243;28;1201;-67
2022/03/22 11:51:08;;;;;;;;;;;19.30;61.60;;;;;;5022862;28;1232;-67
2022/03/22 11:53:43;;;;;;;;;;;19.30;61.70;;;;;;5011425;28;1177;-68
2022/03/22 11:56:09;;;;;;;;;;;19.30;61.60;;;;;;5031313;28;1910;-68
2022/03/22 11:58:34;;;;;;;;;;;19.20;61.60;;;;;;5011813;28;1731;-67
2022/03/22 12:01:01;;;;;;;;;;;19.30;61.60;;;;;;5034485;28;1375;-70
2022/03/22 12:03:35;;;;;;;;;;;19.30;61.70;;;;;;5035287;28;1053;-71
2022/03/22 12:06:11;;;;;;;;;;;19.30;61.30;;;;;;5034857;28;1711;-72
2022/03/22 12:08:36;;;;;;;;;;;19.30;58.60;;;;;;5016827;28;1586;-72
2022/03/22 12:11:02;;;;;;;;;;;19.20;56.10;;;;;;5034849;28;1267;-70
2022/03/22 12:13:30;;;;;;;;;;;19.20;55.10;;;;;;5036045;28;1377;-70
2022/03/22 12:15:56;;;;;;;;;;;19.10;55.30;;;;;;5035650;28;1958;-71
2022/03/22 12:18:26;;;;;;;;;;;19.10;54.90;;;;;;5033992;28;1187;-71
2022/03/22 12:20:55;;;;;;;;;;;19.10;54.60;;;;;;5033110;28;1220;-71
2022/03/22 12:23:21;;;;;;;;;;;19.10;53.80;;;;;;5032466;28;1232;-71
2022/03/22 12:25:47;;;;;;;;;;;19.00;53.10;;;;;;5035292;28;1319;-71
2022/03/22 12:28:12;;;;;;;;;;;19.00;53.00;;;;;;5032642;28;1184;-71
2022/03/22 12:30:38;;;;;;;;;;;19.00;53.00;;;;;;5033814;28;1200;-71
2022/03/22 12:33:07;;;;;;;;;;;18.90;51.80;;;;;;5034304;28;1319;-72
2022/03/22 12:35:32;;;;;;;;;;;18.90;51.30;;;;;;5034108;28;1972;-71
2022/03/22 12:37:59;;;;;;;;;;;18.90;51.10;;;;;;5034518;28;1391;-71
2022/03/22 12:40:24;;;;;;;;;;;18.90;51.50;;;;;;5035547;28;1047;-72
2022/03/22 12:42:50;;;;;;;;;;;18.90;51.30;;;;;;5033735;28;1151;-69
2022/03/22 12:45:16;;;;;;;;;;;18.80;50.20;;;;;;5026869;28;1287;-72
2022/03/22 12:47:42;;;;;;;;;;;18.90;49.80;;;;;;5028378;28;1832;-70
2022/03/22 12:50:08;;;;;;;;;;;18.80;49.80;;;;;;5032418;28;1092;-70
2022/03/22 12:52:33;;;;;;;;;;;18.80;49.80;;;;;;5028673;28;1189;-70
2022/03/22 12:54:59;;;;;;;;;;;18.80;49.90;;;;;;5033464;28;1914;-70
2022/03/22 12:57:24;;;;;;;;;;;18.80;49.50;;;;;;5016115;28;1329;-70
2022/03/22 12:59:50;;;;;;;;;;;18.70;48.20;;;;;;5033801;28;1344;-70
2022/03/22 13:02:15;;;;;;;;;;;18.80;48.10;;;;;;5033779;28;1333;-70
2022/03/22 13:04:48;;;;;;;;;;;18.70;48.00;;;;;;5033475;28;1375;-70
2022/03/22 13:07:14;;;;;;;;;;;18.70;46.80;;;;;;5033678;28;1395;-70
2022/03/22 13:12:23;;;;;;;;;;;18.70;45.90;;;;;;5033991;28;1265;-70
2022/03/22 13:15:01;;;;;;;;;;;18.70;45.50;;;;;;5026914;28;1899;-70
2022/03/22 13:17:28;;;;;;;;;;;18.70;45.20;;;;;;5022109;28;1056;-70
2022/03/22 13:19:54;;;;;;;;;;;18.70;45.40;;;;;;5033356;28;1287;-70
2022/03/22 13:22:21;;;;;;;;;;;18.60;45.00;;;;;;5034388;28;1274;-70
2022/03/22 13:24:48;;;;;;;;;;;18.60;45.10;;;;;;5033344;28;1369;-70
2022/03/22 13:27:14;;;;;;;;;;;18.60;45.10;;;;;;5013547;28;1363;-70
2022/03/22 13:29:40;;;;;;;;;;;18.60;45.40;;;;;;5028842;28;1350;-71
2022/03/22 13:32:06;;;;;;;;;;;18.60;44.90;;;;;;5013190;28;1362;-71
2022/03/22 13:34:32;;;;;;;;;;;18.60;45.10;;;;;;5027783;28;1959;-70
2022/03/22 13:37:05;;;;;;;;;;;18.60;45.10;;;;;;5032800;28;1120;-70
2022/03/22 13:39:30;;;;;;;;;;;18.60;45.50;;;;;;5033083;28;1364;-71
2022/03/22 13:42:09;;;;;;;;;;;18.60;45.60;;;;;;5034208;28;1111;-71
2022/03/22 13:44:50;;;;;;;;;;;18.60;45.50;;;;;;5032703;28;1323;-70
2022/03/22 13:47:34;;;;;;;;;;;18.60;42.50;;;;;;5034098;28;1278;-70
2022/03/22 13:50:01;;;;;;;;;;;18.60;42.10;;;;;;5034572;28;1234;-70
2022/03/22 13:52:27;;;;;;;;;;;18.60;42.10;;;;;;5033068;28;1406;-70
2022/03/22 13:54:57;;;;;;;;;;;18.60;43.20;;;;;;5032784;28;1914;-70
2022/03/22 13:57:25;;;;;;;;;;;18.60;44.10;;;;;;5034190;28;984;-70
2022/03/22 13:59:57;;;;;;;;;;;18.60;44.00;;;;;;5029804;28;1141;-71
2022/03/22 14:02:23;;;;;;;;;;;18.60;43.80;;;;;;5028345;28;1337;-68
2022/03/22 14:04:49;;;;;;;;;;;18.60;44.30;;;;;;5032063;28;1386;-71
2022/03/22 14:07:15;;;;;;;;;;;18.60;44.90;;;;;;5032129;28;1212;-70
2022/03/22 14:09:40;;;;;;;;;;;18.60;45.30;;;;;;5032503;28;1311;-70
2022/03/22 14:12:06;;;;;;;;;;;18.60;44.90;;;;;;5031581;28;1252;-70
2022/03/22 14:14:31;;;;;;;;;;;18.60;44.60;;;;;;5031992;28;1902;-69
2022/03/22 14:16:57;;;;;;;;;;;18.60;43.90;;;;;;5033444;28;1259;-71
2022/03/22 14:19:22;;;;;;;;;;;18.60;44.20;;;;;;5032714;28;1224;-71
2022/03/22 14:21:48;;;;;;;;;;;18.60;43.20;;;;;;5031352;28;1228;-71
2022/03/22 14:24:14;;;;;;;;;;;18.60;42.00;;;;;;5033227;28;1533;-68
2022/03/22 14:26:40;;;;;;;;;;;18.50;43.40;;;;;;5030501;28;1358;-69
2022/03/22 14:29:05;;;;;;;;;;;18.50;43.10;;;;;;5032883;28;1468;-68
2022/03/22 14:31:30;;;;;;;;;;;18.50;42.50;;;;;;5030981;28;1367;-70
2022/03/22 14:33:56;;;;;;;;;;;18.50;42.20;;;;;;5031344;28;1382;-69
2022/03/22 14:36:21;;;;;;;;;;;18.50;42.60;;;;;;5024670;28;1910;-68
2022/03/22 14:38:49;;;;;;;;;;;18.50;42.50;;;;;;5031748;28;1284;-67
2022/03/22 14:41:27;;;;;;;;;;;18.50;42.80;;;;;;5031541;28;1757;-71
2022/03/22 14:43:53;;;;;;;;;;;18.50;43.20;;;;;;5030426;28;1395;-68
2022/03/22 14:46:19;;;;;;;;;;;18.50;43.30;;;;;;5028888;28;1279;-69
2022/03/22 14:48:49;;;;;;;;;;;18.50;43.20;;;;;;5032704;28;1255;-69
2022/03/22 14:51:15;;;;;;;;;;;18.50;43.30;;;;;;5032913;28;1107;-69
2022/03/22 14:59:09;;;;;;;;;;;18.40;43.70;;;;;;5033423;28;1262;-69
2022/03/22 15:01:36;;;;;;;;;;;18.40;43.70;;;;;;5031808;28;1319;-69
2022/03/22 15:04:02;;;;;;;;;;;18.40;43.40;;;;;;5032913;28;1302;-69
2022/03/22 15:06:28;;;;;;;;;;;18.40;43.80;;;;;;5030988;28;1256;-69